Chesterfield County Airport


Codes: KFCI/
Name: Chesterfield County Airport
City: Richmond
Country: United States
Elevation: 236 ft.

Photos at Chesterfield County Airport


   Photos courtesy of SpottingLog. You can add your own sightings and photos by signing up for a free trial today.



No photos found.

Weather at Chesterfield County Airport


Time (UTC)DescriptionTempratureWindCloud coverageVisibilityPressureHumidity
26-Jun-2024 00:00Scattered Clouds31°C4 mph, SW25%10000m1013hPa44%
26-Jun-2024 03:00Scattered Clouds27°C11 mph, S42%10000m1013hPa53%
26-Jun-2024 06:00Scattered Clouds24°C9 mph, SW28%10000m1013hPa71%
26-Jun-2024 09:00Clear Sky23°C7 mph, SW0%10000m1012hPa81%
26-Jun-2024 12:00Clear Sky26°C9 mph, SW2%10000m1012hPa71%
26-Jun-2024 15:00Clear Sky34°C7 mph, SW6%10000m1011hPa37%
26-Jun-2024 18:00Few Clouds38°C9 mph, SW16%10000m1008hPa26%
26-Jun-2024 21:00Few Clouds39°C11 mph, SW12%10000m1005hPa23%
27-Jun-2024 00:00Light Rain33°C4 mph, W23%10000m1005hPa39%
27-Jun-2024 03:00Light Rain22°C4 mph, NE100%8205m1008hPa95%
27-Jun-2024 06:00Moderate Rain21°C4 mph, NE97%10000m1009hPa97%
27-Jun-2024 09:00Light Rain21°C4 mph, SE100%10000m1008hPa98%
27-Jun-2024 12:00Light Rain22°C0 mph, E100%10000m1010hPa90%
27-Jun-2024 15:00Overcast Clouds27°C4 mph, N100%10000m1011hPa63%
27-Jun-2024 18:00Light Rain28°C9 mph, NE94%10000m1010hPa59%
27-Jun-2024 21:00Light Rain27°C2 mph, NE91%10000m1010hPa69%
28-Jun-2024 00:00Light Rain24°C4 mph, SE83%10000m1011hPa84%
28-Jun-2024 03:00Scattered Clouds22°C4 mph, SE50%10000m1013hPa90%
28-Jun-2024 06:00Scattered Clouds21°C2 mph, SE25%10000m1014hPa91%
28-Jun-2024 09:00Clear Sky20°C4 mph, NE2%10000m1014hPa92%
28-Jun-2024 12:00Clear Sky23°C4 mph, NE0%10000m1017hPa78%
28-Jun-2024 15:00Clear Sky29°C9 mph, E10%10000m1017hPa47%
28-Jun-2024 18:00Few Clouds33°C9 mph, SE24%10000m1016hPa36%
28-Jun-2024 21:00Scattered Clouds32°C11 mph, SE44%10000m1015hPa40%
29-Jun-2024 00:00Broken Clouds27°C11 mph, E60%10000m1017hPa55%
29-Jun-2024 03:00Clear Sky24°C9 mph, SE5%10000m1018hPa73%
29-Jun-2024 06:00Light Rain22°C7 mph, SE28%10000m1018hPa95%
29-Jun-2024 09:00Moderate Rain22°C7 mph, SE38%10000m1018hPa98%
29-Jun-2024 12:00Broken Clouds24°C7 mph, S64%10000m1019hPa94%
29-Jun-2024 15:00Broken Clouds31°C9 mph, SW82%10000m1019hPa56%
29-Jun-2024 18:00Light Rain35°C9 mph, SW83%10000m1017hPa41%
29-Jun-2024 21:00Overcast Clouds34°C4 mph, SE100%10000m1016hPa47%
30-Jun-2024 00:00Overcast Clouds30°C4 mph, SW100%10000m1016hPa60%
30-Jun-2024 03:00Overcast Clouds28°C7 mph, S100%10000m1017hPa67%
30-Jun-2024 06:00Overcast Clouds27°C9 mph, S100%10000m1017hPa71%
30-Jun-2024 09:00Moderate Rain23°C9 mph, SW100%8237m1017hPa98%
30-Jun-2024 12:00Moderate Rain23°C7 mph, S100%10000m1017hPa99%
30-Jun-2024 15:00Light Rain24°C7 mph, SW100%10000m1017hPa95%
30-Jun-2024 18:00Light Rain24°C7 mph, SW100%10000m1017hPa92%
30-Jun-2024 21:00Overcast Clouds30°C11 mph, SW100%10000m1014hPa63%